Imlay, Nevada
Current Conditions -  °F | °C
As of 7:56 PM on Sunday 21 Dec 2014 (Local Time) from KWMC Reporting Station
Overcast Overcast  
Wind Chill: 52°   Ceiling: 5000
Heat Index: 52°   Visibility: 10mi
Dew Point: 41°   Wind: 12mph
Humidity: 66%   Direction: 250°WSW
Pressure: 30.17"   Gusts: NA
Location:  40.66°N, 118.15°W
Report Text: KWMC 220356Z AUTO 25010KT 10SM OVC050 11/05 A3017 RMK AO2 SLP199 T01110050
Loading
Personal Weather Stations






























Interactive Weather Map New forecast layout! Learn more

10-Day Weather Forecast

Advertisements
Track Severe Weather on mobile